createdAt,value
2019-05-10T00:00:43.282Z,7.22
2019-05-10T00:03:29.477Z,7.00
2019-05-10T00:06:15.927Z,7.30
2019-05-10T00:08:46.175Z,6.45
2019-05-10T00:11:30.264Z,7.30
2019-05-10T00:14:06.155Z,7.17
2019-05-10T00:16:35.281Z,7.13
2019-05-10T00:19:03.582Z,7.37
2019-05-10T00:21:31.895Z,6.78
2019-05-10T00:24:00.178Z,6.60
2019-05-10T00:26:28.809Z,6.80
2019-05-10T00:28:57.104Z,7.15
2019-05-10T00:31:25.480Z,7.45
2019-05-10T00:33:53.899Z,7.30
2019-05-10T00:36:22.179Z,7.60
2019-05-10T00:38:50.503Z,6.60
2019-05-10T00:41:19.065Z,6.60
2019-05-10T00:43:47.399Z,6.90
2019-05-10T00:46:15.665Z,6.70
2019-05-10T00:48:43.984Z,6.00
2019-05-10T00:51:12.268Z,6.70
2019-05-10T00:53:40.857Z,6.72
2019-05-10T00:56:09.462Z,6.00
2019-05-10T00:58:38.020Z,6.60
2019-05-10T01:01:06.312Z,6.12
2019-05-10T01:03:34.630Z,6.20
2019-05-10T01:06:02.996Z,6.12
2019-05-10T01:08:31.294Z,6.47
2019-05-10T01:10:59.608Z,5.92
2019-05-10T01:13:27.973Z,5.80
2019-05-10T01:15:56.272Z,6.20
2019-05-10T01:18:24.579Z,6.20
2019-05-10T01:20:52.877Z,5.78
2019-05-10T01:23:21.180Z,6.33
2019-05-10T01:25:49.489Z,6.00
2019-05-10T01:28:17.772Z,5.62
2019-05-10T01:30:46.168Z,5.40
2019-05-10T01:33:14.560Z,5.50
2019-05-10T01:35:42.796Z,5.30
2019-05-10T01:38:11.108Z,5.40
2019-05-10T01:40:39.404Z,4.80
2019-05-10T01:43:07.733Z,5.43
2019-05-10T01:45:36.045Z,4.80
2019-05-10T01:48:04.319Z,5.10
2019-05-10T01:50:32.668Z,4.45
2019-05-10T01:53:01.350Z,4.75
2019-05-10T01:55:29.659Z,4.87
2019-05-10T01:57:58.013Z,4.95
2019-05-10T02:00:26.289Z,4.60
2019-05-10T02:02:54.589Z,4.90
2019-05-10T02:05:22.915Z,4.90
2019-05-10T02:07:51.513Z,5.20
2019-05-10T02:10:19.904Z,5.22
2019-05-10T02:12:48.193Z,5.22
2019-05-10T02:15:16.683Z,5.87
2019-05-10T02:17:45.048Z,5.80
2019-05-10T02:20:14.113Z,5.77
2019-05-10T02:22:42.388Z,5.72
2019-05-10T02:25:11.446Z,5.80
2019-05-10T02:27:39.769Z,5.97
2019-05-10T02:30:08.619Z,6.45
2019-05-10T02:32:36.902Z,6.30
2019-05-10T02:35:07.337Z,6.00
2019-05-10T02:37:35.727Z,6.00
2019-05-10T02:40:05.165Z,5.60
2019-05-10T02:42:33.998Z,6.30
2019-05-10T02:45:02.477Z,5.58
2019-05-10T02:47:30.795Z,5.50
2019-05-10T02:49:59.532Z,5.70
2019-05-10T02:52:28.237Z,5.78
2019-05-10T02:54:56.708Z,5.40
2019-05-10T02:57:25.390Z,5.70
2019-05-10T02:59:54.322Z,5.78
2019-05-10T03:02:23.213Z,5.80
2019-05-10T03:04:53.071Z,5.60
2019-05-10T03:07:24.879Z,5.50
2019-05-10T03:09:53.201Z,6.10
2019-05-10T03:12:23.825Z,5.80
2019-05-10T03:14:56.867Z,5.85
2019-05-10T03:17:26.055Z,5.70
2019-05-10T03:19:55.067Z,5.90
2019-05-10T03:22:25.439Z,6.15
2019-05-10T03:24:54.186Z,6.10
2019-05-10T03:27:22.544Z,6.25
2019-05-10T03:29:51.200Z,6.37
2019-05-10T03:32:19.624Z,5.97
2019-05-10T03:34:48.078Z,6.30
2019-05-10T03:37:16.382Z,6.10
2019-05-10T03:39:51.082Z,5.47
2019-05-10T03:42:19.389Z,6.00
2019-05-10T03:44:47.677Z,6.40
2019-05-10T03:47:16.011Z,6.60
2019-05-10T03:49:44.294Z,6.60
2019-05-10T03:52:12.664Z,6.10
2019-05-10T03:54:40.972Z,6.70
2019-05-10T03:57:13.723Z,6.40
2019-05-10T03:59:39.586Z,6.72
2019-05-10T04:02:07.982Z,6.30
2019-05-10T04:04:36.295Z,6.50
2019-05-10T04:07:04.608Z,6.78
2019-05-10T04:09:32.915Z,6.28
2019-05-10T04:12:01.204Z,5.92
2019-05-10T04:14:29.778Z,5.90
2019-05-10T04:16:58.243Z,6.60
2019-05-10T04:19:26.549Z,7.00
2019-05-10T04:21:54.864Z,6.53
2019-05-10T04:24:23.174Z,5.92
2019-05-10T04:26:51.471Z,6.15
2019-05-10T04:29:19.856Z,5.70
2019-05-10T04:31:48.158Z,6.80
2019-05-10T04:34:16.621Z,6.95
2019-05-10T04:36:44.920Z,6.60
2019-05-10T04:39:13.255Z,6.80
2019-05-10T04:41:41.569Z,7.12
2019-05-10T04:44:10.194Z,7.22
2019-05-10T04:46:38.532Z,7.20
2019-05-10T04:49:07.003Z,8.30
2019-05-10T04:51:35.728Z,7.90
2019-05-10T04:54:04.019Z,7.60
2019-05-10T04:56:32.597Z,7.70
2019-05-10T04:59:00.896Z,8.30
2019-05-10T05:01:29.269Z,8.03
2019-05-10T05:03:57.573Z,7.97
2019-05-10T05:06:25.889Z,8.63
2019-05-10T05:08:54.460Z,8.78
2019-05-10T05:11:22.741Z,9.03
2019-05-10T05:13:51.047Z,9.05
2019-05-10T05:16:19.454Z,9.43
2019-05-10T05:18:47.772Z,9.53
2019-05-10T05:21:16.101Z,9.40
2019-05-10T05:23:44.691Z,9.87
2019-05-10T05:26:12.969Z,12.23
2019-05-10T05:28:41.276Z,11.70
2019-05-10T05:31:09.597Z,12.82
2019-05-10T05:33:38.174Z,13.53
2019-05-10T05:36:06.502Z,12.80
2019-05-10T05:38:40.660Z,13.58
2019-05-10T05:41:05.257Z,14.65
2019-05-10T05:43:34.050Z,15.00
2019-05-10T05:46:02.360Z,15.68
2019-05-10T05:48:39.998Z,15.20
2019-05-10T05:51:00.714Z,15.55
2019-05-10T05:53:29.034Z,15.63
2019-05-10T05:55:57.339Z,15.43
2019-05-10T05:58:27.257Z,17.25
2019-05-10T06:00:55.806Z,17.90
2019-05-10T06:03:29.327Z,17.65
2019-05-10T06:05:54.666Z,17.17
2019-05-10T06:08:24.960Z,16.90
2019-05-10T06:10:57.788Z,15.72
2019-05-10T06:13:30.379Z,17.83
2019-05-10T06:15:53.749Z,19.80
2019-05-10T06:18:22.049Z,16.62
2019-05-10T06:20:50.358Z,17.62
2019-05-10T06:23:18.665Z,16.42
2019-05-10T06:25:47.083Z,15.83
2019-05-10T06:28:26.615Z,17.15
2019-05-10T06:30:45.740Z,19.07
2019-05-10T06:33:14.135Z,16.00
2019-05-10T06:35:44.455Z,17.52
2019-05-10T06:38:12.816Z,16.48
2019-05-10T06:40:47.339Z,16.30
2019-05-10T06:43:13.288Z,16.03
2019-05-10T06:45:41.567Z,16.50
2019-05-10T06:48:09.961Z,16.87
2019-05-10T06:50:38.257Z,15.60
2019-05-10T06:53:10.834Z,15.40
2019-05-10T06:55:36.696Z,14.78
2019-05-10T06:58:05.271Z,14.75
2019-05-10T07:00:38.024Z,13.80
2019-05-10T07:03:03.867Z,14.60
2019-05-10T07:05:32.296Z,14.65
2019-05-10T07:08:13.854Z,13.62
2019-05-10T07:10:33.826Z,11.88
2019-05-10T07:13:03.670Z,11.30
2019-05-10T07:15:35.972Z,11.50
2019-05-10T07:18:01.152Z,10.53
2019-05-10T07:20:30.939Z,9.65
2019-05-10T07:22:59.996Z,9.95
2019-05-10T07:25:29.353Z,9.60
2019-05-10T07:27:58.015Z,9.23
2019-05-10T07:30:35.424Z,8.75
2019-05-10T07:33:03.901Z,9.05
2019-05-10T07:35:36.907Z,8.50
2019-05-10T07:38:02.574Z,7.55
2019-05-10T07:40:30.895Z,7.60
2019-05-10T07:42:59.197Z,7.72
2019-05-10T07:45:27.585Z,7.30
2019-05-10T07:47:55.886Z,6.62
2019-05-10T07:50:24.180Z,7.60
2019-05-10T07:52:52.468Z,5.95
2019-05-10T07:55:27.723Z,6.37
2019-05-10T07:57:51.077Z,5.20
2019-05-10T08:00:19.465Z,4.87
2019-05-10T08:02:51.241Z,4.35
2019-05-10T08:05:18.562Z,4.12
2019-05-10T08:07:49.346Z,4.65
2019-05-10T08:10:18.670Z,4.12
2019-05-10T08:12:48.419Z,3.80
2019-05-10T08:15:19.501Z,3.90
2019-05-10T08:17:48.706Z,4.25
2019-05-10T08:20:33.176Z,4.00
2019-05-10T08:22:48.095Z,4.30
2019-05-10T08:25:16.398Z,4.40
2019-05-10T08:27:50.393Z,4.80
2019-05-10T08:30:28.014Z,4.30
2019-05-10T08:32:47.943Z,4.80
2019-05-10T08:35:18.531Z,4.60
2019-05-10T08:37:46.349Z,4.65
2019-05-10T08:40:14.736Z,5.00
2019-05-10T08:42:49.030Z,4.97
2019-05-10T08:45:14.862Z,5.30
2019-05-10T08:47:43.494Z,4.92
2019-05-10T08:50:28.863Z,4.70
2019-05-10T08:52:42.480Z,5.47
2019-05-10T08:55:12.309Z,5.50
2019-05-10T08:57:44.592Z,5.70
2019-05-10T09:00:12.994Z,6.15
2019-05-10T09:02:42.658Z,5.90
2019-05-10T09:05:12.482Z,5.10
2019-05-10T09:07:43.003Z,4.55
2019-05-10T09:10:12.785Z,4.20
2019-05-10T09:12:50.590Z,3.90
2019-05-10T09:15:13.594Z,3.70
2019-05-10T09:17:42.855Z,4.55
2019-05-10T09:20:20.483Z,4.80
2019-05-10T09:22:42.356Z,4.20
2019-05-10T09:25:12.905Z,3.33
2019-05-10T09:27:43.163Z,4.45
2019-05-10T09:30:14.221Z,4.60
2019-05-10T09:32:43.457Z,3.80
2019-05-10T09:35:12.817Z,3.73
2019-05-10T09:37:42.217Z,2.98
2019-05-10T09:40:13.465Z,4.42
2019-05-10T09:42:43.398Z,4.80
2019-05-10T09:45:13.282Z,3.90
2019-05-10T09:47:43.550Z,3.40
2019-05-10T09:50:12.633Z,4.50
2019-05-10T09:52:41.219Z,3.55
2019-05-10T09:55:14.681Z,3.75
2019-05-10T09:57:41.163Z,3.30
2019-05-10T10:00:11.028Z,9.93
2019-05-10T10:02:40.478Z,4.03
2019-05-10T10:05:09.402Z,3.45
2019-05-10T10:07:37.723Z,3.70
2019-05-10T10:10:07.581Z,3.30
2019-05-10T10:12:37.270Z,3.30
2019-05-10T10:15:09.228Z,3.40
2019-05-10T10:17:41.927Z,3.20
2019-05-10T10:20:08.411Z,2.90
2019-05-10T10:22:38.175Z,2.70
2019-05-10T10:25:07.420Z,3.20
2019-05-10T10:27:38.756Z,3.00
2019-05-10T10:30:12.762Z,2.70
2019-05-10T10:32:37.701Z,2.30
2019-05-10T10:35:07.842Z,2.55
2019-05-10T10:37:37.862Z,2.47
2019-05-10T10:40:08.579Z,2.40
2019-05-10T10:42:38.228Z,2.45
2019-05-10T10:45:08.820Z,2.72
2019-05-10T10:47:38.146Z,2.30
2019-05-10T10:50:09.189Z,2.52
2019-05-10T10:52:37.786Z,3.30
2019-05-10T10:55:11.211Z,2.70
2019-05-10T10:57:37.555Z,2.10
2019-05-10T11:00:10.273Z,1.80
2019-05-10T11:02:41.507Z,2.10
2019-05-10T11:05:09.831Z,2.05
2019-05-10T11:07:41.127Z,2.10
2019-05-10T11:10:16.121Z,2.40
2019-05-10T11:12:38.350Z,1.80
2019-05-10T11:15:06.742Z,2.10
2019-05-10T11:17:35.048Z,1.80
2019-05-10T11:20:09.322Z,1.85
2019-05-10T11:22:41.907Z,1.72
2019-05-10T11:25:12.033Z,2.00
2019-05-10T11:27:37.128Z,2.20
2019-05-10T11:30:07.340Z,2.60
2019-05-10T11:32:35.622Z,2.90
2019-05-10T11:35:05.559Z,3.57
2019-05-10T11:37:36.425Z,2.90
2019-05-10T11:40:06.131Z,3.20
2019-05-10T11:42:37.410Z,2.90
2019-05-10T11:45:06.196Z,3.10
2019-05-10T11:47:34.785Z,2.60
2019-05-10T11:50:06.493Z,2.80
2019-05-10T11:52:34.783Z,2.70
2019-05-10T11:55:04.365Z,3.00
2019-05-10T11:57:33.073Z,2.70
2019-05-10T12:00:01.537Z,2.93
2019-05-10T12:05:03.618Z,2.30
2019-05-10T12:07:35.295Z,2.65
2019-05-10T12:10:08.278Z,2.58
2019-05-10T12:12:50.087Z,2.70
2019-05-10T12:15:04.285Z,2.35
2019-05-10T12:17:30.406Z,3.00
2019-05-10T12:19:58.709Z,2.70
2019-05-10T12:22:32.058Z,5.58
2019-05-10T12:25:20.755Z,3.52
2019-05-10T12:26:27.297Z,2.60
2019-05-10T12:27:41.757Z,3.27
2019-05-10T12:30:02.602Z,2.50
2019-05-10T12:32:35.190Z,2.87
2019-05-10T12:34:57.832Z,2.30
2019-05-10T12:37:26.151Z,2.80
2019-05-10T12:39:54.556Z,2.53
2019-05-10T12:42:22.836Z,2.60
2019-05-10T12:44:53.808Z,2.50
2019-05-10T12:47:21.525Z,2.70
2019-05-10T12:49:53.970Z,2.52
2019-05-10T12:52:22.123Z,2.60
2019-05-10T12:54:50.093Z,2.95
2019-05-10T12:57:18.986Z,2.40
2019-05-10T12:59:47.534Z,2.80
2019-05-10T13:02:15.832Z,3.00
2019-05-10T13:04:47.227Z,3.50
2019-05-10T13:07:14.193Z,3.83
2019-05-10T13:09:42.542Z,3.90
2019-05-10T13:12:10.808Z,5.37
2019-05-10T13:14:46.132Z,5.40
2019-05-10T13:17:11.820Z,4.97
2019-05-10T13:19:39.433Z,3.93
2019-05-10T13:22:07.744Z,5.00
2019-05-10T13:24:36.033Z,4.60
2019-05-10T13:27:04.351Z,4.40
2019-05-10T13:29:32.655Z,3.65
2019-05-10T13:32:01.003Z,3.80
2019-05-10T13:34:29.672Z,3.60
2019-05-10T13:36:57.991Z,3.72
2019-05-10T13:39:27.680Z,3.80
2019-05-10T13:41:57.092Z,4.12
2019-05-10T13:44:26.248Z,3.45
2019-05-10T13:46:54.561Z,3.70
2019-05-10T13:49:23.142Z,4.00
2019-05-10T13:51:51.725Z,4.00
2019-05-10T13:54:20.297Z,4.58
2019-05-10T13:56:52.260Z,4.97
2019-05-10T13:59:18.614Z,5.45
2019-05-10T14:01:49.406Z,5.20
2019-05-10T14:04:17.299Z,5.70
2019-05-10T14:06:45.601Z,5.90
2019-05-10T14:09:14.389Z,6.00
2019-05-10T14:11:46.861Z,6.65
2019-05-10T14:14:14.700Z,6.30
2019-05-10T14:16:42.844Z,7.10
2019-05-10T14:19:15.819Z,7.47
2019-05-10T14:21:41.494Z,8.68
2019-05-10T14:24:15.134Z,7.67
2019-05-10T14:26:40.125Z,7.97
2019-05-10T14:29:11.124Z,6.97
2019-05-10T14:31:38.770Z,6.80
2019-05-10T14:34:15.515Z,6.70
2019-05-10T14:36:40.752Z,6.83
2019-05-10T14:39:07.870Z,6.62
2019-05-10T14:41:39.639Z,8.13
2019-05-10T14:44:06.263Z,6.63
2019-05-10T14:46:34.814Z,7.33
2019-05-10T14:49:09.610Z,7.20
2019-05-10T14:51:49.630Z,8.33
2019-05-10T14:54:06.725Z,7.00
2019-05-10T14:56:33.829Z,7.42
2019-05-10T14:59:02.245Z,6.65
2019-05-10T15:01:30.545Z,7.45
2019-05-10T15:03:58.838Z,8.20
2019-05-10T15:06:30.955Z,9.20
2019-05-10T15:08:57.175Z,9.10
2019-05-10T15:11:26.576Z,9.85
2019-05-10T15:13:55.880Z,8.45
2019-05-10T15:16:27.072Z,8.63
2019-05-10T15:18:54.228Z,7.90
2019-05-10T15:21:22.545Z,7.45
2019-05-10T15:23:55.361Z,7.47
2019-05-10T15:26:21.265Z,6.60
2019-05-10T15:28:49.661Z,7.00
2019-05-10T15:31:18.018Z,6.60
2019-05-10T15:33:46.335Z,6.90
2019-05-10T15:36:14.631Z,7.10
2019-05-10T15:38:49.816Z,7.35
2019-05-10T15:41:16.879Z,6.67
2019-05-10T15:43:43.015Z,4.97
2019-05-10T15:46:11.318Z,4.70
2019-05-10T15:48:41.729Z,4.67
2019-05-10T15:51:11.349Z,5.40
2019-05-10T15:53:39.950Z,5.20
2019-05-10T15:56:08.292Z,5.78
2019-05-10T15:58:42.114Z,6.30
2019-05-10T16:01:07.129Z,6.03
2019-05-10T16:03:35.419Z,6.12
2019-05-10T16:06:04.101Z,6.30
2019-05-10T16:08:32.408Z,6.85
2019-05-10T16:11:00.720Z,6.00
2019-05-10T16:13:29.190Z,6.30
2019-05-10T16:15:59.435Z,5.85
2019-05-10T16:18:27.609Z,6.90
2019-05-10T16:20:56.410Z,6.40
2019-05-10T16:23:24.745Z,6.97
2019-05-10T16:25:53.050Z,6.17
2019-05-10T16:28:22.975Z,5.83
2019-05-10T16:30:51.376Z,5.00
2019-05-10T16:33:19.794Z,4.30
2019-05-10T16:35:50.355Z,4.45
2019-05-10T16:38:18.289Z,4.40
2019-05-10T16:40:57.111Z,4.00
2019-05-10T16:43:23.964Z,4.58
2019-05-10T16:45:46.688Z,4.30
2019-05-10T16:48:15.342Z,3.90
2019-05-10T16:50:43.641Z,4.40
2019-05-10T16:53:11.950Z,3.80
2019-05-10T16:55:42.502Z,3.80
2019-05-10T16:58:15.038Z,4.25
2019-05-10T17:00:45.583Z,4.22
2019-05-10T17:03:13.039Z,5.70
2019-05-10T17:05:52.718Z,4.95
2019-05-10T17:08:10.928Z,4.30
2019-05-10T17:10:39.274Z,5.40
2019-05-10T17:13:07.844Z,5.45
2019-05-10T17:15:39.952Z,6.28
2019-05-10T17:18:10.805Z,5.45
2019-05-10T17:20:36.202Z,5.40
2019-05-10T17:23:08.940Z,5.40
2019-05-10T17:25:35.525Z,5.70
2019-05-10T17:28:03.969Z,6.30
2019-05-10T17:30:32.217Z,6.70
2019-05-10T17:33:04.100Z,7.70
2019-05-10T17:35:30.801Z,8.55
2019-05-10T17:37:59.143Z,8.35
2019-05-10T17:40:27.464Z,8.18
2019-05-10T17:42:55.814Z,8.55
2019-05-10T17:45:24.436Z,9.13
2019-05-10T17:47:52.777Z,9.40
2019-05-10T17:50:21.391Z,8.98
2019-05-10T17:52:49.703Z,8.70
2019-05-10T17:55:18.523Z,8.30
2019-05-10T17:57:48.538Z,8.83
2019-05-10T18:00:17.722Z,7.08
2019-05-10T18:02:46.022Z,6.70
2019-05-10T18:05:14.634Z,7.45
2019-05-10T18:07:42.955Z,7.40
2019-05-10T18:10:11.557Z,7.37
2019-05-10T18:12:39.905Z,7.62
2019-05-10T18:15:09.073Z,7.30
2019-05-10T18:17:37.370Z,7.22
2019-05-10T18:20:06.228Z,8.00
2019-05-10T18:22:42.235Z,7.92
2019-05-10T18:25:04.940Z,7.25
2019-05-10T18:27:33.241Z,7.70
2019-05-10T18:30:02.190Z,8.67
2019-05-10T18:32:35.588Z,8.30
2019-05-10T18:35:00.823Z,8.15
2019-05-10T18:37:29.070Z,8.63
2019-05-10T18:39:57.676Z,8.28
2019-05-10T18:42:28.013Z,8.33
2019-05-10T18:44:56.373Z,8.93
2019-05-10T18:47:24.681Z,8.50
2019-05-10T18:49:53.301Z,9.58
2019-05-10T18:52:21.938Z,10.10
2019-05-10T18:54:50.230Z,9.40
2019-05-10T18:57:19.515Z,9.70
2019-05-10T18:59:48.039Z,10.43
2019-05-10T19:02:17.831Z,11.10
2019-05-10T19:04:51.845Z,10.93
2019-05-10T19:07:16.488Z,11.48
2019-05-10T19:09:44.792Z,9.98
2019-05-10T19:12:18.633Z,10.45
2019-05-10T19:14:43.140Z,11.33
2019-05-10T19:17:11.457Z,10.90
2019-05-10T19:19:42.113Z,11.00
2019-05-10T19:22:10.394Z,11.12
2019-05-10T19:24:38.837Z,10.93
2019-05-10T19:27:09.205Z,10.53
2019-05-10T19:29:43.024Z,10.10
2019-05-10T19:32:11.451Z,10.30
2019-05-10T19:34:38.191Z,10.03
2019-05-10T19:37:06.516Z,10.00
2019-05-10T19:39:34.847Z,9.90
2019-05-10T19:42:06.010Z,9.98
2019-05-10T19:44:34.753Z,9.60
2019-05-10T19:47:03.512Z,10.25
2019-05-10T19:49:32.239Z,9.75
2019-05-10T19:52:00.550Z,10.30
2019-05-10T19:54:29.111Z,10.10
2019-05-10T19:56:57.435Z,10.30
2019-05-10T19:59:25.746Z,10.80
2019-05-10T20:01:54.078Z,11.03
2019-05-10T20:04:22.399Z,12.98
2019-05-10T20:06:50.706Z,12.70
2019-05-10T20:09:19.016Z,12.35
2019-05-10T20:11:47.340Z,12.20
2019-05-10T20:14:15.643Z,13.05
2019-05-10T20:16:52.614Z,14.35
2019-05-10T20:19:14.360Z,14.20
2019-05-10T20:21:43.008Z,13.37
2019-05-10T20:24:11.341Z,14.00
2019-05-10T20:26:39.622Z,13.45
2019-05-10T20:29:07.934Z,14.50
2019-05-10T20:31:36.346Z,14.25
2019-05-10T20:34:04.745Z,14.40
2019-05-10T20:36:33.043Z,15.30
2019-05-10T20:39:01.344Z,15.27
2019-05-10T20:41:29.686Z,15.67
2019-05-10T20:43:57.981Z,14.98
2019-05-10T20:46:26.596Z,13.40
2019-05-10T20:48:54.979Z,13.60
2019-05-10T20:51:23.320Z,13.20
2019-05-10T20:53:51.610Z,12.70
2019-05-10T20:56:19.933Z,12.30
2019-05-10T20:58:48.259Z,13.33
2019-05-10T21:01:16.581Z,14.30
2019-05-10T21:03:44.892Z,13.70
2019-05-10T21:06:13.211Z,13.00
2019-05-10T21:08:41.518Z,13.80
2019-05-10T21:11:09.838Z,13.90
2019-05-10T21:13:38.143Z,13.13
2019-05-10T21:16:06.719Z,13.95
2019-05-10T21:18:35.028Z,13.55
2019-05-10T21:21:03.356Z,14.07
2019-05-10T21:23:31.661Z,13.00
2019-05-10T21:26:00.242Z,13.72
2019-05-10T21:28:28.534Z,14.70
2019-05-10T21:30:57.235Z,15.80
2019-05-10T21:33:25.793Z,16.05
2019-05-10T21:35:54.113Z,16.32
2019-05-10T21:38:32.480Z,16.62
2019-05-10T21:40:52.623Z,16.07
2019-05-10T21:43:20.962Z,15.68
2019-05-10T21:45:49.298Z,16.57
2019-05-10T21:48:17.632Z,14.80
2019-05-10T21:50:45.956Z,15.38
2019-05-10T21:53:14.287Z,16.17
2019-05-10T21:55:42.675Z,16.17
2019-05-10T21:58:10.987Z,17.17
2019-05-10T22:00:40.971Z,15.90
2019-05-10T22:03:09.622Z,16.05
2019-05-10T22:05:37.920Z,16.70
2019-05-10T22:08:06.247Z,14.90
2019-05-10T22:10:34.563Z,13.90
2019-05-10T22:13:02.864Z,15.48
2019-05-10T22:15:31.516Z,16.37
2019-05-10T22:18:00.002Z,15.63
2019-05-10T22:20:28.318Z,15.80
2019-05-10T22:22:56.642Z,17.00
2019-05-10T22:25:24.961Z,18.62
2019-05-10T22:27:53.268Z,17.90
2019-05-10T22:30:21.597Z,18.65
2019-05-10T22:32:49.899Z,17.70
2019-05-10T22:35:18.292Z,17.77
2019-05-10T22:37:46.905Z,17.75
2019-05-10T22:40:15.614Z,17.40
2019-05-10T22:42:43.948Z,18.40
2019-05-10T22:45:12.310Z,17.40
2019-05-10T22:47:40.624Z,16.23
2019-05-10T22:50:10.252Z,16.30
2019-05-10T22:52:38.934Z,15.80
2019-05-10T22:55:08.078Z,15.10
2019-05-10T22:57:36.422Z,16.85
2019-05-10T23:00:06.151Z,16.77
2019-05-10T23:02:34.471Z,16.90
2019-05-10T23:05:03.012Z,16.80
2019-05-10T23:07:31.589Z,17.27
2019-05-10T23:09:59.891Z,17.60
2019-05-10T23:12:28.262Z,16.40
2019-05-10T23:14:56.589Z,17.27
2019-05-10T23:17:24.920Z,17.40
2019-05-10T23:19:53.214Z,17.07
2019-05-10T23:22:21.821Z,16.77
2019-05-10T23:24:50.140Z,17.52
2019-05-10T23:27:18.474Z,16.75
2019-05-10T23:29:46.770Z,16.73
2019-05-10T23:32:15.109Z,17.80
2019-05-10T23:34:43.630Z,18.00
2019-05-10T23:37:12.313Z,18.42
2019-05-10T23:39:41.545Z,18.30
2019-05-10T23:42:10.179Z,17.25
2019-05-10T23:44:38.498Z,17.30
2019-05-10T23:47:06.833Z,17.77
2019-05-10T23:49:35.136Z,17.50
2019-05-10T23:52:03.638Z,17.77
2019-05-10T23:54:32.186Z,16.62
2019-05-10T23:57:00.473Z,15.83
2019-05-10T23:59:28.778Z,16.97
